createdAt,value
2023-02-27T00:00:20.669Z,-2.40
2023-02-27T00:02:51.666Z,-2.40
2023-02-27T00:05:19.779Z,-2.40
2023-02-27T00:07:46.507Z,-2.40
2023-02-27T00:10:14.682Z,-2.40
2023-02-27T00:12:42.119Z,-2.40
2023-02-27T00:15:18.110Z,-2.40
2023-02-27T00:17:45.736Z,-2.40
2023-02-27T00:20:16.792Z,-2.40
2023-02-27T00:22:45.104Z,-2.40
2023-02-27T00:25:13.419Z,-2.40
2023-02-27T00:27:41.381Z,-2.40
2023-02-27T00:30:12.598Z,-2.40
2023-02-27T00:32:40.573Z,-2.40
2023-02-27T00:35:10.710Z,-2.40
2023-02-27T00:37:38.383Z,-2.40
2023-02-27T00:40:06.439Z,-2.40
2023-02-27T00:42:34.018Z,-2.40
2023-02-27T00:45:00.813Z,-2.40
2023-02-27T00:47:27.670Z,-2.40
2023-02-27T00:49:54.454Z,-2.40
2023-02-27T00:52:21.319Z,-2.40
2023-02-27T00:54:48.058Z,-2.40
2023-02-27T00:57:14.800Z,-2.40
2023-02-27T00:59:41.660Z,-2.40
2023-02-27T01:02:08.630Z,-2.40
2023-02-27T01:04:35.680Z,-2.40
2023-02-27T01:07:02.886Z,-2.40
2023-02-27T01:09:29.602Z,-2.40
2023-02-27T01:11:57.478Z,-2.40
2023-02-27T01:14:24.218Z,-2.40
2023-02-27T01:16:50.981Z,-2.40
2023-02-27T01:19:17.874Z,-2.40
2023-02-27T01:21:45.231Z,-2.40
2023-02-27T01:24:13.086Z,-2.40
2023-02-27T01:26:40.052Z,-2.50
2023-02-27T01:29:06.986Z,-2.50
2023-02-27T01:31:34.649Z,-2.50
2023-02-27T01:34:01.597Z,-2.50
2023-02-27T01:36:28.438Z,-2.50
2023-02-27T01:38:55.203Z,-2.50
2023-02-27T01:41:22.090Z,-2.50
2023-02-27T01:44:06.666Z,-2.60
2023-02-27T01:46:34.828Z,-2.60
2023-02-27T01:49:16.909Z,-2.60
2023-02-27T01:51:56.579Z,-2.60
2023-02-27T01:54:26.829Z,-2.60
2023-02-27T01:56:53.891Z,-2.60
2023-02-27T01:59:22.032Z,-2.60
2023-02-27T02:01:49.208Z,-2.60
2023-02-27T02:04:32.081Z,-2.60
2023-02-27T02:07:11.573Z,-2.60
2023-02-27T02:09:45.076Z,-2.60
2023-02-27T02:12:15.792Z,-2.60
2023-02-27T02:14:42.505Z,-2.60
2023-02-27T02:17:29.352Z,-2.60
2023-02-27T02:20:29.087Z,-2.60
2023-02-27T02:23:34.253Z,-2.60
2023-02-27T02:26:39.665Z,-2.60
2023-02-27T02:29:50.715Z,-2.60
2023-02-27T02:32:47.325Z,-2.60
2023-02-27T02:35:51.808Z,-2.70
2023-02-27T02:38:56.725Z,-2.70
2023-02-27T02:42:08.696Z,-2.70
2023-02-27T02:45:07.916Z,-2.70
2023-02-27T02:47:55.953Z,-2.80
2023-02-27T02:51:17.463Z,-2.80
2023-02-27T02:54:00.450Z,-2.80
2023-02-27T02:56:35.537Z,-2.90
2023-02-27T02:59:38.006Z,-2.90
2023-02-27T03:02:10.626Z,-2.90
2023-02-27T03:04:55.804Z,-3.00
2023-02-27T03:07:53.327Z,-3.00
2023-02-27T03:10:29.684Z,-3.00
2023-02-27T03:13:05.485Z,-3.00
2023-02-27T03:15:49.824Z,-3.00
2023-02-27T03:18:34.762Z,-3.00
2023-02-27T03:21:12.302Z,-3.00
2023-02-27T03:23:47.616Z,-3.00
2023-02-27T03:26:21.219Z,-3.00
2023-02-27T03:29:10.445Z,-3.10
2023-02-27T03:32:00.973Z,-3.10
2023-02-27T03:34:34.844Z,-3.10
2023-02-27T03:37:20.141Z,-3.10
2023-02-27T03:40:03.497Z,-3.10
2023-02-27T03:42:48.299Z,-3.10
2023-02-27T03:45:50.369Z,-3.10
2023-02-27T03:48:17.280Z,-3.20
2023-02-27T03:50:44.269Z,-3.10
2023-02-27T03:53:28.313Z,-3.20
2023-02-27T03:55:58.401Z,-3.20
2023-02-27T03:58:25.843Z,-3.20
2023-02-27T04:00:53.074Z,-3.20
2023-02-27T04:03:21.024Z,-3.30
2023-02-27T04:05:48.112Z,-3.30
2023-02-27T04:08:50.855Z,-3.30
2023-02-27T04:11:36.379Z,-3.30
2023-02-27T04:14:49.529Z,-3.30
2023-02-27T04:17:24.516Z,-3.30
2023-02-27T04:20:17.677Z,-3.30
2023-02-27T04:22:57.858Z,-3.40
2023-02-27T04:25:39.524Z,-3.40
2023-02-27T04:28:51.238Z,-3.40
2023-02-27T04:31:30.446Z,-3.40
2023-02-27T04:34:09.688Z,-3.50
2023-02-27T04:36:42.372Z,-3.50
2023-02-27T04:39:36.879Z,-3.50
2023-02-27T04:42:13.159Z,-3.50
2023-02-27T04:44:41.887Z,-3.60
2023-02-27T04:47:14.141Z,-3.60
2023-02-27T04:49:56.515Z,-3.70
2023-02-27T04:52:31.688Z,-3.70
2023-02-27T04:55:20.150Z,-3.80
2023-02-27T04:57:53.821Z,-3.80
2023-02-27T05:00:25.177Z,-3.90
2023-02-27T05:03:12.195Z,-3.90
2023-02-27T05:05:43.170Z,-4.00
2023-02-27T05:08:29.862Z,-4.00
2023-02-27T05:11:20.820Z,-4.00
2023-02-27T05:13:56.755Z,-4.10
2023-02-27T05:16:33.411Z,-4.10
2023-02-27T05:19:01.757Z,-4.20
2023-02-27T05:21:51.373Z,-4.20
2023-02-27T05:24:32.373Z,-4.30
2023-02-27T05:27:17.377Z,-4.30
2023-02-27T05:30:01.615Z,-4.30
2023-02-27T05:32:56.986Z,-4.30
2023-02-27T05:35:32.553Z,-4.30
2023-02-27T05:38:15.667Z,-4.30
2023-02-27T05:40:56.377Z,-4.30
2023-02-27T05:43:29.374Z,-4.30
2023-02-27T05:46:13.500Z,-4.30
2023-02-27T05:48:49.058Z,-4.40
2023-02-27T05:51:19.311Z,-4.40
2023-02-27T05:53:55.385Z,-4.40
2023-02-27T05:56:26.824Z,-4.40
2023-02-27T05:59:08.542Z,-4.40
2023-02-27T06:01:35.807Z,-4.30
2023-02-27T06:04:02.684Z,-4.30
2023-02-27T06:06:31.036Z,-4.30
2023-02-27T06:08:57.919Z,-4.30
2023-02-27T06:11:24.705Z,-4.20
2023-02-27T06:13:51.455Z,-4.20
2023-02-27T06:16:18.312Z,-4.20
2023-02-27T06:18:45.057Z,-4.10
2023-02-27T06:21:13.781Z,-4.10
2023-02-27T06:23:40.572Z,-4.10
2023-02-27T06:26:07.321Z,-4.00
2023-02-27T06:28:34.053Z,-4.00
2023-02-27T06:31:00.803Z,-4.00
2023-02-27T06:33:27.506Z,-3.90
2023-02-27T06:35:54.282Z,-3.90
2023-02-27T06:38:21.049Z,-3.90
2023-02-27T06:40:47.788Z,-3.80
2023-02-27T06:43:14.905Z,-3.70
2023-02-27T06:45:41.848Z,-3.70
2023-02-27T06:48:11.216Z,-3.70
2023-02-27T06:50:37.972Z,-3.60
2023-02-27T06:53:04.724Z,-3.50
2023-02-27T06:55:31.463Z,-3.50
2023-02-27T06:57:58.212Z,-3.40
2023-02-27T07:00:25.088Z,-3.20
2023-02-27T07:02:51.828Z,-3.20
2023-02-27T07:05:18.695Z,-3.10
2023-02-27T07:07:45.468Z,-2.90
2023-02-27T07:10:14.199Z,-2.80
2023-02-27T07:12:41.826Z,-2.70
2023-02-27T07:15:09.568Z,-2.60
2023-02-27T07:17:36.324Z,-2.40
2023-02-27T07:20:04.338Z,-2.30
2023-02-27T07:22:31.066Z,-2.20
2023-02-27T07:24:57.810Z,-2.10
2023-02-27T07:27:24.555Z,-2.00
2023-02-27T07:29:52.398Z,-1.90
2023-02-27T07:32:19.166Z,-1.80
2023-02-27T07:34:46.107Z,-1.70
2023-02-27T07:37:13.136Z,-1.60
2023-02-27T07:39:39.929Z,-1.40
2023-02-27T07:42:06.776Z,-1.30
2023-02-27T07:44:33.554Z,-1.20
2023-02-27T07:47:00.298Z,-1.10
2023-02-27T07:49:27.050Z,-1.00
2023-02-27T07:51:53.907Z,-0.80
2023-02-27T07:54:20.783Z,-0.70
2023-02-27T07:56:47.532Z,-0.50
2023-02-27T07:59:14.274Z,-0.40
2023-02-27T08:01:41.005Z,-0.30
2023-02-27T08:04:07.760Z,-0.10
2023-02-27T08:06:34.505Z,0.20
2023-02-27T08:09:01.373Z,0.50
2023-02-27T08:11:28.539Z,0.60
2023-02-27T08:14:00.540Z,0.70
2023-02-27T08:16:28.988Z,0.70
2023-02-27T08:18:56.746Z,0.70
2023-02-27T08:21:23.487Z,0.70
2023-02-27T08:23:50.395Z,0.90
2023-02-27T08:26:17.101Z,1.00
2023-02-27T08:28:44.167Z,1.00
2023-02-27T08:31:11.077Z,1.10
2023-02-27T08:33:37.878Z,1.30
2023-02-27T08:36:05.202Z,1.40
2023-02-27T08:38:32.077Z,1.50
2023-02-27T08:40:58.833Z,1.60
2023-02-27T08:43:25.693Z,1.60
2023-02-27T08:45:52.641Z,1.60
2023-02-27T08:48:19.427Z,1.60
2023-02-27T08:50:46.893Z,1.70
2023-02-27T08:53:14.261Z,1.80
2023-02-27T08:55:41.106Z,1.90
2023-02-27T08:58:08.636Z,2.00
2023-02-27T09:00:35.620Z,2.10
2023-02-27T09:03:02.794Z,2.30
2023-02-27T09:05:29.719Z,2.60
2023-02-27T09:07:56.476Z,2.70
2023-02-27T09:10:23.283Z,2.80
2023-02-27T09:12:50.015Z,2.90
2023-02-27T09:15:16.917Z,3.00
2023-02-27T09:17:43.694Z,3.10
2023-02-27T09:20:12.082Z,3.30
2023-02-27T09:22:39.452Z,3.40
2023-02-27T09:25:07.447Z,3.60
2023-02-27T09:27:35.706Z,3.70
2023-02-27T09:30:02.473Z,3.80
2023-02-27T09:32:29.318Z,4.00
2023-02-27T09:34:56.088Z,4.20
2023-02-27T09:37:24.864Z,4.30
2023-02-27T09:39:51.578Z,4.40
2023-02-27T09:42:38.415Z,4.30
2023-02-27T09:45:08.098Z,4.10
2023-02-27T09:47:48.048Z,3.60
2023-02-27T09:50:36.949Z,3.50
2023-02-27T09:53:10.307Z,3.40
2023-02-27T09:55:42.368Z,3.10
2023-02-27T09:58:40.899Z,3.00
2023-02-27T10:01:22.340Z,2.90
2023-02-27T10:04:26.729Z,2.60
2023-02-27T10:07:40.221Z,2.30
2023-02-27T10:10:54.973Z,2.10
2023-02-27T10:13:47.197Z,1.90
2023-02-27T10:16:19.885Z,2.00
2023-02-27T10:18:55.628Z,2.30
2023-02-27T10:21:38.037Z,2.40
2023-02-27T10:24:29.359Z,2.70
2023-02-27T10:27:02.465Z,3.10
2023-02-27T10:29:33.987Z,3.90
2023-02-27T10:32:19.744Z,4.50
2023-02-27T10:34:58.721Z,5.10
2023-02-27T10:37:27.759Z,5.60
2023-02-27T10:40:00.543Z,5.70
2023-02-27T10:42:35.311Z,5.80
2023-02-27T10:45:04.588Z,6.10
2023-02-27T10:47:31.514Z,6.50
2023-02-27T10:50:00.235Z,6.70
2023-02-27T10:52:26.987Z,6.60
2023-02-27T10:54:53.778Z,6.00
2023-02-27T10:57:40.812Z,5.10
2023-02-27T11:00:28.239Z,4.30
2023-02-27T11:02:55.137Z,3.80
2023-02-27T11:05:42.268Z,3.80
2023-02-27T11:08:23.265Z,3.60
2023-02-27T11:11:00.489Z,3.30
2023-02-27T11:13:40.526Z,3.10
2023-02-27T11:16:17.020Z,2.90
2023-02-27T11:18:52.469Z,2.80
2023-02-27T11:21:28.993Z,2.70
2023-02-27T11:24:07.602Z,2.50
2023-02-27T11:26:39.978Z,2.40
2023-02-27T11:29:19.110Z,2.30
2023-02-27T11:32:13.398Z,2.20
2023-02-27T11:34:50.447Z,2.10
2023-02-27T11:37:30.866Z,2.30
2023-02-27T11:40:15.189Z,2.60
2023-02-27T11:42:57.144Z,3.00
2023-02-27T11:46:04.454Z,3.40
2023-02-27T11:48:46.042Z,3.40
2023-02-27T11:51:38.061Z,3.60
2023-02-27T11:54:25.951Z,3.80
2023-02-27T11:57:00.065Z,3.80
2023-02-27T11:59:44.252Z,3.70
2023-02-27T12:02:25.134Z,3.60
2023-02-27T12:05:26.255Z,3.50
2023-02-27T12:08:13.198Z,3.50
2023-02-27T12:11:13.092Z,3.50
2023-02-27T12:13:57.118Z,3.40
2023-02-27T12:16:50.972Z,3.60
2023-02-27T12:19:44.080Z,3.50
2023-02-27T12:22:31.060Z,3.50
2023-02-27T12:25:07.241Z,3.40
2023-02-27T12:27:51.649Z,3.40
2023-02-27T12:30:39.668Z,3.40
2023-02-27T12:33:40.495Z,3.50
2023-02-27T12:36:14.467Z,3.50
2023-02-27T12:38:42.267Z,3.70
2023-02-27T12:41:23.369Z,4.00
2023-02-27T12:44:14.150Z,4.10
2023-02-27T12:47:08.636Z,4.10
2023-02-27T12:50:01.798Z,3.90
2023-02-27T12:53:13.000Z,3.80
2023-02-27T12:55:48.820Z,3.80
2023-02-27T12:58:30.140Z,3.80
2023-02-27T13:01:12.264Z,3.80
2023-02-27T13:03:52.140Z,3.80
2023-02-27T13:06:42.385Z,3.80
2023-02-27T13:09:25.657Z,4.10
2023-02-27T13:13:22.377Z,4.50
2023-02-27T13:16:00.626Z,5.00
2023-02-27T13:18:52.624Z,5.80
2023-02-27T13:21:24.426Z,6.00
2023-02-27T13:24:10.935Z,6.30
2023-02-27T13:26:47.977Z,6.50
2023-02-27T13:29:18.296Z,6.80
2023-02-27T13:32:36.560Z,6.70
2023-02-27T13:35:44.055Z,6.30
2023-02-27T13:38:33.069Z,5.50
2023-02-27T13:41:20.088Z,5.00
2023-02-27T13:43:52.436Z,4.60
2023-02-27T13:46:30.828Z,4.60
2023-02-27T13:49:20.001Z,5.00
2023-02-27T13:51:53.207Z,5.50
2023-02-27T13:54:28.008Z,6.10
2023-02-27T13:56:54.674Z,6.60
2023-02-27T13:59:31.303Z,6.80
2023-02-27T14:02:04.743Z,7.40
2023-02-27T14:04:38.070Z,8.00
2023-02-27T14:07:10.759Z,8.20
2023-02-27T14:09:42.810Z,8.50
2023-02-27T14:12:46.377Z,9.20
2023-02-27T14:15:22.336Z,10.60
2023-02-27T14:17:56.806Z,13.40
2023-02-27T14:20:27.399Z,15.70
2023-02-27T14:23:16.012Z,17.30
2023-02-27T14:26:00.800Z,18.90
2023-02-27T14:28:48.654Z,19.80
2023-02-27T14:31:36.476Z,20.10
2023-02-27T14:34:06.375Z,17.80
2023-02-27T14:36:45.191Z,14.70
2023-02-27T14:39:31.228Z,13.50
2023-02-27T14:43:01.509Z,14.20
2023-02-27T14:45:30.964Z,16.20
2023-02-27T14:47:58.874Z,18.10
2023-02-27T14:50:36.549Z,19.30
2023-02-27T14:53:05.953Z,20.20
2023-02-27T14:55:36.414Z,18.30
2023-02-27T14:58:22.212Z,17.40
2023-02-27T15:01:07.452Z,18.10
2023-02-27T15:03:48.494Z,17.70
2023-02-27T15:06:24.127Z,17.90
2023-02-27T15:08:55.131Z,18.30
2023-02-27T15:11:24.763Z,18.40
2023-02-27T15:14:02.090Z,16.70
2023-02-27T15:16:42.573Z,15.60
2023-02-27T15:19:20.974Z,14.70
2023-02-27T15:22:16.896Z,13.70
2023-02-27T15:24:50.497Z,12.20
2023-02-27T15:27:24.656Z,10.00
2023-02-27T15:29:58.349Z,8.30
2023-02-27T15:32:42.368Z,7.00
2023-02-27T15:35:27.789Z,6.10
2023-02-27T15:37:58.581Z,5.40
2023-02-27T15:40:29.606Z,5.00
2023-02-27T15:42:58.770Z,4.60
2023-02-27T15:45:32.728Z,4.40
2023-02-27T15:48:00.274Z,4.20
2023-02-27T15:50:42.830Z,4.40
2023-02-27T15:53:24.279Z,4.50
2023-02-27T15:56:08.884Z,5.40
2023-02-27T15:58:46.853Z,5.80
2023-02-27T16:01:20.810Z,5.50
2023-02-27T16:03:55.504Z,5.10
2023-02-27T16:06:38.304Z,4.80
2023-02-27T16:09:23.669Z,4.50
2023-02-27T16:12:10.383Z,3.90
2023-02-27T16:14:44.611Z,3.50
2023-02-27T16:17:31.567Z,3.00
2023-02-27T16:20:02.485Z,2.70
2023-02-27T16:22:30.376Z,2.40
2023-02-27T16:25:10.440Z,2.20
2023-02-27T16:27:39.076Z,2.10
2023-02-27T16:30:11.472Z,2.00
2023-02-27T16:32:45.573Z,1.90
2023-02-27T16:35:22.513Z,1.80
2023-02-27T16:37:50.641Z,1.70
2023-02-27T16:40:24.048Z,1.60
2023-02-27T16:42:52.171Z,1.50
2023-02-27T16:45:26.176Z,1.50
2023-02-27T16:47:57.217Z,1.40
2023-02-27T16:50:42.949Z,1.40
2023-02-27T16:53:09.862Z,1.30
2023-02-27T16:55:42.989Z,1.20
2023-02-27T16:58:16.989Z,1.20
2023-02-27T17:00:43.863Z,1.10
2023-02-27T17:03:10.775Z,1.00
2023-02-27T17:05:37.610Z,1.00
2023-02-27T17:08:04.659Z,0.90
2023-02-27T17:10:31.405Z,0.90
2023-02-27T17:12:58.109Z,0.80
2023-02-27T17:15:27.570Z,0.80
2023-02-27T17:17:54.482Z,0.70
2023-02-27T17:20:21.567Z,0.70
2023-02-27T17:22:48.296Z,0.70
2023-02-27T17:25:15.068Z,0.60
2023-02-27T17:27:43.785Z,0.60
2023-02-27T17:30:11.483Z,0.50
2023-02-27T17:32:38.624Z,0.50
2023-02-27T17:35:06.014Z,0.40
2023-02-27T17:37:32.911Z,0.30
2023-02-27T17:39:59.698Z,0.40
2023-02-27T17:42:26.463Z,0.30
2023-02-27T17:44:53.435Z,0.30
2023-02-27T17:47:20.366Z,0.30
2023-02-27T17:49:47.404Z,0.30
2023-02-27T17:52:14.831Z,0.20
2023-02-27T17:54:41.626Z,0.20
2023-02-27T17:57:10.296Z,0.10
2023-02-27T17:59:37.349Z,0.10
2023-02-27T18:02:04.162Z,0.00
2023-02-27T18:04:30.875Z,-0.10
2023-02-27T18:06:57.770Z,-0.10
2023-02-27T18:09:24.497Z,-0.20
2023-02-27T18:11:51.257Z,-0.30
2023-02-27T18:14:17.951Z,-0.40
2023-02-27T18:16:45.017Z,-0.40
2023-02-27T18:19:14.364Z,-0.40
2023-02-27T18:21:42.661Z,-0.50
2023-02-27T18:24:09.666Z,-0.60
2023-02-27T18:26:37.108Z,-0.70
2023-02-27T18:29:09.358Z,-0.70
2023-02-27T18:31:43.887Z,-0.70
2023-02-27T18:34:12.350Z,-0.70
2023-02-27T18:36:39.844Z,-0.60
2023-02-27T18:39:07.933Z,-0.70
2023-02-27T18:41:35.222Z,-0.60
2023-02-27T18:44:02.303Z,-0.70
2023-02-27T18:46:29.683Z,-0.60
2023-02-27T18:48:56.986Z,-0.70
2023-02-27T18:51:24.778Z,-0.60
2023-02-27T18:53:51.886Z,-0.70
2023-02-27T18:56:24.959Z,-0.70
2023-02-27T18:58:53.668Z,-0.70
2023-02-27T19:01:26.591Z,-0.80
2023-02-27T19:03:56.182Z,-0.80
2023-02-27T19:06:22.966Z,-0.90
2023-02-27T19:08:49.693Z,-1.00
2023-02-27T19:11:32.874Z,-1.00
2023-02-27T19:14:02.465Z,-1.10
2023-02-27T19:16:29.812Z,-1.10
2023-02-27T19:18:59.251Z,-1.20
2023-02-27T19:21:28.045Z,-1.20
2023-02-27T19:23:55.265Z,-1.20
2023-02-27T19:26:23.254Z,-1.20
2023-02-27T19:28:55.080Z,-1.20
2023-02-27T19:31:24.108Z,-1.20
2023-02-27T19:33:51.533Z,-1.20
2023-02-27T19:36:20.791Z,-1.20
2023-02-27T19:38:48.470Z,-1.20
2023-02-27T19:41:17.222Z,-1.20
2023-02-27T19:43:44.655Z,-1.20
2023-02-27T19:46:23.878Z,-1.20
2023-02-27T19:48:53.146Z,-1.20
2023-02-27T19:51:21.166Z,-1.30
2023-02-27T19:53:48.386Z,-1.30
2023-02-27T19:56:20.295Z,-1.30
2023-02-27T19:58:48.720Z,-1.30
2023-02-27T20:01:34.289Z,-1.30
2023-02-27T20:04:02.132Z,-1.30
2023-02-27T20:06:33.108Z,-1.20
2023-02-27T20:09:00.595Z,-1.30
2023-02-27T20:11:33.007Z,-1.30
2023-02-27T20:14:00.752Z,-1.30
2023-02-27T20:16:30.303Z,-1.30
2023-02-27T20:18:57.388Z,-1.20
2023-02-27T20:21:26.511Z,-1.20
2023-02-27T20:23:54.217Z,-1.20
2023-02-27T20:26:35.512Z,-1.10
2023-02-27T20:29:10.694Z,-1.10
2023-02-27T20:31:40.341Z,-1.10
2023-02-27T20:34:11.329Z,-1.10
2023-02-27T20:36:39.919Z,-1.10
2023-02-27T20:39:08.230Z,-1.10
2023-02-27T20:41:35.574Z,-1.20
2023-02-27T20:44:04.175Z,-1.20
2023-02-27T20:46:31.413Z,-1.30
2023-02-27T20:49:02.031Z,-1.40
2023-02-27T20:51:36.087Z,-1.40
2023-02-27T20:54:06.773Z,-1.50
2023-02-27T20:56:41.035Z,-1.50
2023-02-27T20:59:12.303Z,-1.60
2023-02-27T21:01:40.286Z,-1.70
2023-02-27T21:04:07.510Z,-1.70
2023-02-27T21:06:34.806Z,-1.80
2023-02-27T21:09:06.384Z,-1.80
2023-02-27T21:11:34.008Z,-1.90
2023-02-27T21:14:09.545Z,-1.90
2023-02-27T21:16:38.664Z,-2.00
2023-02-27T21:19:07.208Z,-2.00
2023-02-27T21:21:35.582Z,-2.10
2023-02-27T21:24:02.854Z,-2.10
2023-02-27T21:26:37.850Z,-2.10
2023-02-27T21:29:15.792Z,-2.20
2023-02-27T21:31:46.049Z,-2.20
2023-02-27T21:34:18.179Z,-2.30
2023-02-27T21:36:45.987Z,-2.30
2023-02-27T21:39:25.837Z,-2.40
2023-02-27T21:41:53.283Z,-2.40
2023-02-27T21:44:24.813Z,-2.40
2023-02-27T21:46:54.913Z,-2.40
2023-02-27T21:49:26.158Z,-2.50
2023-02-27T21:51:53.247Z,-2.50
2023-02-27T21:54:20.322Z,-2.50
2023-02-27T21:56:48.916Z,-2.50
2023-02-27T21:59:17.256Z,-2.60
2023-02-27T22:01:47.289Z,-2.60
2023-02-27T22:04:20.053Z,-2.60
2023-02-27T22:06:48.757Z,-2.60
2023-02-27T22:09:16.086Z,-2.60
2023-02-27T22:11:43.214Z,-2.70
2023-02-27T22:14:12.206Z,-2.70
2023-02-27T22:16:40.412Z,-2.70
2023-02-27T22:19:10.495Z,-2.70
2023-02-27T22:21:37.730Z,-2.70
2023-02-27T22:24:05.377Z,-2.80
2023-02-27T22:26:33.434Z,-2.80
2023-02-27T22:29:00.735Z,-2.80
2023-02-27T22:31:31.979Z,-2.90
2023-02-27T22:34:03.870Z,-2.90
2023-02-27T22:36:32.968Z,-2.90
2023-02-27T22:39:00.640Z,-2.90
2023-02-27T22:41:31.934Z,-2.90
2023-02-27T22:44:01.178Z,-2.90
2023-02-27T22:46:35.444Z,-2.90
2023-02-27T22:49:15.910Z,-2.90
2023-02-27T22:51:42.944Z,-2.90
2023-02-27T22:54:13.148Z,-2.90
2023-02-27T22:56:40.161Z,-2.80
2023-02-27T22:59:07.227Z,-2.80
2023-02-27T23:01:37.226Z,-2.80
2023-02-27T23:04:08.080Z,-2.80
2023-02-27T23:06:40.088Z,-2.80
2023-02-27T23:09:11.225Z,-2.80
2023-02-27T23:11:38.222Z,-2.80
2023-02-27T23:14:05.038Z,-2.70
2023-02-27T23:16:32.036Z,-2.70
2023-02-27T23:19:00.322Z,-2.80
2023-02-27T23:21:34.348Z,-2.70
2023-02-27T23:24:13.648Z,-2.70
2023-02-27T23:26:45.249Z,-2.70
2023-02-27T23:29:12.756Z,-2.70
2023-02-27T23:31:40.230Z,-2.70
2023-02-27T23:34:07.162Z,-2.70
2023-02-27T23:36:35.570Z,-2.70
2023-02-27T23:39:05.049Z,-2.70
2023-02-27T23:41:33.302Z,-2.60
2023-02-27T23:44:01.357Z,-2.70
2023-02-27T23:46:30.215Z,-2.70
2023-02-27T23:48:59.093Z,-2.60
2023-02-27T23:51:28.371Z,-2.60
2023-02-27T23:53:56.669Z,-2.60
2023-02-27T23:56:30.389Z,-2.70
2023-02-27T23:59:04.391Z,-2.60
